Terminal Aerodrome Forecast
Issued by NWS

Home | Current Version | Previous Version | Text Only | Print | Product List | Glossary On
Versions: 1 2 3 4 5 6 7 8 9 10 11 12 13
000
FTPA31 PHFO 220520
TAFMDY
TAF
PMDY 220520Z 2206/2306 07018G28KT P6SM VCSH SCT025 BKN050
     FM221000 09018G28KT P6SM SCT025 BKN050=

USA.gov is the U.S. government's official web portal to all federal, state and local government web resources and services.